createdAt,value
2018-05-13T00:01:12.588Z,75.30
2018-05-13T00:03:40.027Z,76.40
2018-05-13T00:06:08.246Z,76.20
2018-05-13T00:08:35.690Z,76.20
2018-05-13T00:11:03.146Z,77.00
2018-05-13T00:13:30.579Z,77.00
2018-05-13T00:15:58.026Z,77.10
2018-05-13T00:18:26.232Z,78.20
2018-05-13T00:20:53.687Z,78.20
2018-05-13T00:23:21.127Z,78.10
2018-05-13T00:25:48.583Z,77.90
2018-05-13T00:28:16.032Z,77.80
2018-05-13T00:30:44.247Z,77.90
2018-05-13T00:33:11.695Z,77.80
2018-05-13T00:35:39.145Z,78.00
2018-05-13T00:38:06.579Z,78.20
2018-05-13T00:40:34.795Z,79.90
2018-05-13T00:43:02.245Z,79.90
2018-05-13T00:45:29.679Z,79.60
2018-05-13T00:47:57.119Z,79.70
2018-05-13T00:50:25.331Z,79.40
2018-05-13T00:52:52.775Z,79.40
2018-05-13T00:55:20.219Z,79.80
2018-05-13T00:57:47.805Z,79.60
2018-05-13T01:00:15.251Z,80.50
2018-05-13T01:02:42.699Z,80.40
2018-05-13T01:05:10.898Z,79.90
2018-05-13T01:07:38.347Z,79.90
2018-05-13T01:10:05.796Z,80.00
2018-05-13T01:12:33.239Z,80.70
2018-05-13T01:15:00.683Z,80.40
2018-05-13T01:17:28.908Z,80.50
2018-05-13T01:19:56.351Z,80.50
2018-05-13T01:22:23.807Z,80.70
2018-05-13T01:44:44.023Z,81.80
2018-05-13T01:47:11.485Z,82.20
2018-05-13T01:49:38.932Z,82.00
2018-05-13T01:52:06.378Z,82.00
2018-05-13T01:54:33.831Z,81.90
2018-05-13T01:57:01.287Z,82.50
2018-05-13T01:59:28.731Z,83.30
2018-05-13T02:01:56.965Z,83.30
2018-05-13T02:04:24.408Z,83.30
2018-05-13T02:06:51.867Z,83.00
2018-05-13T02:09:19.311Z,83.00
2018-05-13T02:11:46.769Z,83.00
2018-05-13T02:14:14.231Z,83.70
2018-05-13T02:16:41.680Z,83.50
2018-05-13T02:19:09.120Z,83.30
2018-05-13T02:21:36.571Z,83.20
2018-05-13T02:24:04.007Z,83.10
2018-05-13T02:26:32.227Z,84.10
2018-05-13T02:28:59.663Z,84.00
2018-05-13T02:31:27.116Z,84.30
2018-05-13T02:33:55.327Z,82.90
2018-05-13T02:36:22.792Z,84.00
2018-05-13T02:38:50.231Z,84.40
2018-05-13T02:41:17.687Z,84.20
2018-05-13T02:43:45.132Z,83.70
2018-05-13T02:46:12.583Z,83.70
2018-05-13T02:48:40.023Z,84.20
2018-05-13T02:51:08.247Z,84.90
2018-05-13T02:53:35.690Z,84.80
2018-05-13T02:56:03.155Z,85.60
2018-05-13T02:58:30.606Z,85.40
2018-05-13T03:00:58.064Z,85.50
2018-05-13T03:03:25.514Z,85.60
2018-05-13T03:05:52.961Z,85.60
2018-05-13T03:08:20.917Z,85.50
2018-05-13T03:10:49.512Z,85.90
2018-05-13T03:13:16.958Z,86.40
2018-05-13T03:15:45.163Z,85.80
2018-05-13T03:18:12.612Z,85.70
2018-05-13T03:20:40.719Z,85.90
2018-05-13T03:23:08.184Z,86.10
2018-05-13T03:25:35.621Z,86.00
2018-05-13T03:28:03.067Z,85.60
2018-05-13T03:30:30.519Z,85.50
2018-05-13T03:32:57.968Z,85.20
2018-05-13T03:35:25.411Z,85.30
2018-05-13T03:37:52.859Z,85.20
2018-05-13T03:40:20.303Z,85.70
2018-05-13T03:42:48.532Z,86.40
2018-05-13T03:45:15.970Z,86.40
2018-05-13T03:47:44.725Z,86.10
2018-05-13T03:50:12.922Z,86.50
2018-05-13T03:52:40.373Z,86.40
2018-05-13T03:55:07.811Z,86.70
2018-05-13T03:57:36.031Z,86.00
2018-05-13T04:00:05.184Z,85.80
2018-05-13T04:02:33.390Z,85.20
2018-05-13T04:05:00.839Z,85.20
2018-05-13T04:07:28.366Z,85.30
2018-05-13T04:10:07.719Z,84.90
2018-05-13T04:12:47.115Z,85.00
2018-05-13T04:15:26.367Z,85.00
2018-05-13T04:17:53.802Z,85.60
2018-05-13T04:20:22.075Z,85.60
2018-05-13T04:22:49.519Z,85.50
2018-05-13T04:25:17.045Z,85.70
2018-05-13T04:27:44.402Z,86.10
2018-05-13T04:30:11.847Z,86.00
2018-05-13T04:32:40.063Z,86.00
2018-05-13T04:35:07.511Z,86.00
2018-05-13T04:37:34.952Z,85.70
2018-05-13T04:40:03.732Z,85.50
2018-05-13T04:42:31.215Z,85.70
2018-05-13T04:44:58.663Z,85.60
2018-05-13T04:47:26.111Z,85.40
2018-05-13T04:49:53.547Z,85.70
2018-05-13T04:52:21.768Z,84.70
2018-05-13T04:54:49.207Z,84.60
2018-05-13T04:57:17.876Z,84.10
2018-05-13T04:59:46.082Z,83.30
2018-05-13T05:02:13.523Z,83.30
2018-05-13T05:04:40.977Z,82.60
2018-05-13T05:07:08.415Z,82.20
2018-05-13T05:09:35.858Z,81.60
2018-05-13T05:12:04.067Z,80.70
2018-05-13T05:14:31.517Z,80.60
2018-05-13T05:16:58.967Z,80.50
2018-05-13T05:19:26.406Z,80.10
2018-05-13T05:21:54.616Z,79.90
2018-05-13T05:24:22.064Z,79.80
2018-05-13T05:26:49.503Z,79.40
2018-05-13T05:29:16.951Z,79.10
2018-05-13T05:31:45.157Z,79.10
2018-05-13T05:34:12.614Z,79.00
2018-05-13T05:36:40.050Z,78.50
2018-05-13T05:39:07.504Z,78.00
2018-05-13T05:41:35.712Z,77.20
2018-05-13T05:44:03.197Z,77.20
2018-05-13T05:46:30.628Z,77.20
2018-05-13T05:48:58.099Z,76.50
2018-05-13T05:51:25.550Z,75.80
2018-05-13T05:53:53.007Z,75.90
2018-05-13T05:56:20.443Z,75.80
2018-05-13T05:58:47.890Z,75.10
2018-05-13T06:01:15.331Z,74.70
2018-05-13T06:03:43.550Z,74.20
2018-05-13T06:06:10.992Z,74.10
2018-05-13T06:08:38.447Z,73.80
2018-05-13T06:11:05.891Z,74.30
2018-05-13T06:13:33.346Z,73.20
2018-05-13T06:16:00.789Z,73.00
2018-05-13T06:18:29.004Z,71.50
2018-05-13T06:20:56.439Z,72.00
2018-05-13T06:23:23.896Z,71.90
2018-05-13T06:25:51.331Z,70.60
2018-05-13T06:28:19.538Z,71.20
2018-05-13T06:30:46.988Z,71.20
2018-05-13T06:33:14.443Z,70.40
2018-05-13T06:35:41.866Z,70.60
2018-05-13T06:38:10.081Z,69.40
2018-05-13T06:40:37.539Z,69.30
2018-05-13T06:43:04.975Z,68.70
2018-05-13T06:45:32.424Z,68.60
2018-05-13T06:48:00.623Z,68.20
2018-05-13T06:50:28.063Z,67.60
2018-05-13T06:52:55.498Z,67.50
2018-05-13T06:55:25.623Z,67.00
2018-05-13T06:57:53.838Z,66.40
2018-05-13T07:00:21.276Z,66.40
2018-05-13T07:02:48.739Z,66.20
2018-05-13T07:05:16.927Z,66.10
2018-05-13T07:07:44.363Z,66.10
2018-05-13T07:10:11.811Z,65.80
2018-05-13T07:12:39.254Z,65.60
2018-05-13T07:15:07.465Z,65.00
2018-05-13T07:17:34.905Z,65.00
2018-05-13T07:20:13.149Z,64.50
2018-05-13T07:22:41.595Z,63.60
2018-05-13T07:25:09.838Z,58.50
2018-05-13T07:27:37.283Z,58.50
2018-05-13T07:30:04.740Z,57.40
2018-05-13T07:32:35.850Z,56.20
2018-05-13T07:35:03.316Z,55.40
2018-05-13T07:37:30.757Z,55.10
2018-05-13T07:39:58.220Z,52.50
2018-05-13T07:42:25.660Z,51.80
2018-05-13T07:44:53.128Z,51.70
2018-05-13T07:47:20.564Z,51.90
2018-05-13T07:49:48.027Z,51.10
2018-05-13T07:52:15.479Z,49.90
2018-05-13T07:54:43.700Z,48.80
2018-05-13T07:57:12.358Z,48.70
2018-05-13T07:59:39.799Z,48.20
2018-05-13T08:02:07.248Z,48.10
2018-05-13T08:04:35.471Z,46.60
2018-05-13T08:07:02.924Z,46.60
2018-05-13T08:09:30.389Z,47.40
2018-05-13T08:11:57.843Z,46.40
2018-05-13T08:14:25.288Z,45.10
2018-05-13T08:16:52.739Z,45.40
2018-05-13T08:19:20.186Z,45.70
2018-05-13T08:21:47.624Z,42.70
2018-05-13T08:24:15.096Z,42.50
2018-05-13T08:26:42.792Z,42.20
2018-05-13T08:29:10.241Z,42.20
2018-05-13T08:31:38.384Z,40.60
2018-05-13T08:34:05.849Z,38.70
2018-05-13T08:36:33.296Z,37.20
2018-05-13T08:39:00.740Z,37.40
2018-05-13T08:41:28.960Z,39.90
2018-05-13T08:43:56.421Z,39.80
2018-05-13T08:46:23.866Z,38.60
2018-05-13T08:48:51.346Z,37.50
2018-05-13T08:51:18.804Z,39.30
2018-05-13T08:53:46.260Z,38.00
2018-05-13T08:56:14.429Z,36.40
2018-05-13T08:58:41.883Z,34.00
2018-05-13T09:01:09.345Z,33.10
2018-05-13T09:03:36.792Z,34.40
2018-05-13T09:06:04.250Z,34.80
2018-05-13T09:08:31.793Z,33.10
2018-05-13T09:10:59.171Z,31.30
2018-05-13T09:13:26.616Z,30.10
2018-05-13T09:15:54.364Z,31.60
2018-05-13T09:18:21.803Z,33.80
2018-05-13T09:20:50.015Z,34.70
2018-05-13T09:23:17.517Z,34.70
2018-05-13T09:25:45.744Z,34.90
2018-05-13T09:28:13.191Z,34.90
2018-05-13T09:30:40.926Z,36.00
2018-05-13T09:33:09.299Z,34.60
2018-05-13T09:35:36.624Z,34.60
2018-05-13T09:38:04.055Z,34.30
2018-05-13T09:40:32.357Z,33.30
2018-05-13T09:42:59.796Z,32.30
2018-05-13T09:45:29.049Z,30.20
2018-05-13T09:47:57.253Z,27.90
2018-05-13T09:50:24.703Z,27.80
2018-05-13T09:52:52.164Z,26.70
2018-05-13T09:55:20.196Z,25.40
2018-05-13T09:57:48.457Z,26.80
2018-05-13T10:00:15.917Z,26.90
2018-05-13T10:02:43.372Z,28.80
2018-05-13T10:05:10.820Z,30.40
2018-05-13T10:07:39.468Z,30.30
2018-05-13T10:10:06.915Z,32.60
2018-05-13T10:12:34.369Z,32.70
2018-05-13T10:15:01.819Z,31.30
2018-05-13T10:17:30.492Z,28.80
2018-05-13T10:19:58.721Z,26.00
2018-05-13T10:22:26.159Z,25.90
2018-05-13T10:24:53.619Z,26.10
2018-05-13T10:27:21.116Z,26.70
2018-05-13T10:29:49.280Z,27.30
2018-05-13T10:32:16.715Z,27.30
2018-05-13T10:34:44.177Z,27.80
2018-05-13T10:37:11.628Z,29.50
2018-05-13T10:39:39.091Z,29.90
2018-05-13T10:42:06.536Z,30.60
2018-05-13T10:44:33.988Z,28.50
2018-05-13T10:47:02.211Z,26.40
2018-05-13T10:49:30.424Z,27.80
2018-05-13T10:51:57.890Z,27.30
2018-05-13T10:54:27.129Z,29.60
2018-05-13T10:56:54.583Z,30.00
2018-05-13T10:59:22.041Z,31.60
2018-05-13T11:01:49.495Z,33.30
2018-05-13T11:04:16.996Z,33.90
2018-05-13T11:06:44.448Z,34.00
2018-05-13T11:09:12.565Z,35.40
2018-05-13T11:11:40.023Z,34.40
2018-05-13T11:14:07.477Z,32.30
2018-05-13T11:16:34.927Z,31.60
2018-05-13T11:19:03.060Z,31.00
2018-05-13T11:21:31.635Z,27.60
2018-05-13T11:23:59.855Z,26.60
2018-05-13T11:26:28.076Z,26.60
2018-05-13T11:28:58.300Z,25.80
2018-05-13T11:31:26.597Z,24.20
2018-05-13T11:33:54.110Z,24.20
2018-05-13T11:36:22.264Z,22.50
2018-05-13T11:38:51.301Z,22.50
2018-05-13T11:41:19.537Z,27.40
2018-05-13T11:43:47.641Z,27.60
2018-05-13T11:46:15.096Z,30.70
2018-05-13T11:48:42.540Z,32.60
2018-05-13T11:51:10.010Z,30.60
2018-05-13T11:53:37.452Z,28.70
2018-05-13T11:56:04.895Z,28.40
2018-05-13T11:58:32.346Z,26.50
2018-05-13T12:00:59.795Z,26.90
2018-05-13T12:03:27.248Z,26.30
2018-05-13T12:05:54.699Z,26.70
2018-05-13T12:08:22.143Z,26.30
2018-05-13T12:10:49.596Z,26.20
2018-05-13T12:13:17.033Z,25.50
2018-05-13T12:15:45.265Z,24.90
2018-05-13T12:18:12.716Z,24.90
2018-05-13T12:20:40.172Z,25.70
2018-05-13T12:23:10.696Z,25.80
2018-05-13T12:25:38.144Z,24.60
2018-05-13T12:28:05.610Z,25.10
2018-05-13T12:30:33.120Z,24.30
2018-05-13T12:33:01.267Z,24.20
2018-05-13T12:35:28.724Z,24.20
2018-05-13T12:37:56.185Z,27.10
2018-05-13T12:40:23.629Z,27.90
2018-05-13T12:42:51.097Z,31.10
2018-05-13T12:45:19.232Z,32.50
2018-05-13T12:47:46.693Z,29.90
2018-05-13T12:50:14.233Z,27.90
2018-05-13T12:52:41.600Z,26.20
2018-05-13T12:55:10.269Z,25.30
2018-05-13T12:57:38.484Z,25.90
2018-05-13T13:00:05.939Z,25.80
2018-05-13T13:02:33.384Z,27.40
2018-05-13T13:05:00.839Z,29.00
2018-05-13T13:07:28.285Z,30.10
2018-05-13T13:09:55.728Z,30.30
2018-05-13T13:12:23.204Z,29.80
2018-05-13T13:14:50.645Z,28.50
2018-05-13T13:17:18.113Z,29.50
2018-05-13T13:19:45.544Z,29.70
2018-05-13T13:22:13.846Z,31.50
2018-05-13T13:24:41.208Z,31.50
2018-05-13T13:27:08.840Z,31.80
2018-05-13T13:29:37.057Z,30.20
2018-05-13T13:32:04.503Z,30.10
2018-05-13T13:34:31.960Z,29.50
2018-05-13T13:36:59.414Z,31.10
2018-05-13T13:39:26.854Z,31.20
2018-05-13T13:41:54.304Z,31.30
2018-05-13T13:44:22.020Z,29.00
2018-05-13T13:46:49.459Z,30.00
2018-05-13T13:49:16.903Z,29.80
2018-05-13T13:51:44.365Z,30.50
2018-05-13T13:54:11.817Z,30.00
2018-05-13T13:56:39.272Z,28.20
2018-05-13T13:59:06.711Z,29.20
2018-05-13T14:01:34.165Z,29.00
2018-05-13T14:04:02.383Z,30.30
2018-05-13T14:06:30.007Z,30.20
2018-05-13T14:08:57.283Z,29.60
2018-05-13T14:11:24.747Z,30.00
2018-05-13T14:13:52.222Z,30.10
2018-05-13T14:16:20.529Z,31.10
2018-05-13T14:18:48.758Z,31.80
2018-05-13T14:21:16.230Z,31.70
2018-05-13T14:23:43.710Z,31.30
2018-05-13T14:26:11.115Z,29.80
2018-05-13T14:28:38.576Z,29.10
2018-05-13T14:31:07.052Z,29.80
2018-05-13T14:33:34.496Z,30.40
2018-05-13T14:36:01.960Z,30.00
2018-05-13T14:38:29.424Z,33.20
2018-05-13T14:40:56.886Z,32.90
2018-05-13T14:43:24.341Z,32.60
2018-05-13T14:45:51.799Z,34.10
2018-05-13T14:48:19.252Z,37.70
2018-05-13T14:50:46.709Z,44.40
2018-05-13T14:53:14.164Z,49.00
2018-05-13T14:55:41.623Z,51.40
2018-05-13T14:58:09.093Z,55.60
2018-05-13T15:00:36.531Z,60.00
2018-05-13T15:03:03.992Z,64.30
2018-05-13T15:05:31.447Z,69.30
2018-05-13T15:07:58.949Z,70.20
2018-05-13T15:10:26.405Z,72.40
2018-05-13T15:12:53.878Z,74.50
2018-05-13T15:15:21.316Z,75.70
2018-05-13T15:17:48.878Z,74.50
2018-05-13T15:20:16.416Z,77.10
2018-05-13T15:22:43.869Z,80.20
2018-05-13T15:25:11.317Z,80.30
2018-05-13T15:27:39.156Z,81.50
2018-05-13T15:30:06.604Z,80.70
2018-05-13T15:32:34.824Z,81.60
2018-05-13T15:35:02.280Z,81.50
2018-05-13T15:37:29.742Z,83.60
2018-05-13T15:39:57.191Z,81.60
2018-05-13T15:42:24.708Z,80.10
2018-05-13T15:44:57.655Z,80.50
2018-05-13T15:47:27.885Z,78.40
2018-05-13T15:50:04.144Z,75.10
2018-05-13T15:52:34.433Z,75.40
2018-05-13T15:55:04.872Z,76.10
2018-05-13T15:57:35.186Z,75.90
2018-05-13T16:00:04.011Z,77.00
2018-05-13T16:02:34.385Z,77.50
2018-05-13T16:05:07.063Z,77.30
2018-05-13T16:07:36.611Z,77.30
2018-05-13T16:12:48.294Z,77.50
2018-05-13T16:15:18.164Z,77.50
2018-05-13T16:17:46.523Z,74.40
2018-05-13T16:20:14.640Z,74.40
2018-05-13T16:22:42.088Z,74.70
2018-05-13T16:25:09.568Z,71.70
2018-05-13T16:27:37.020Z,73.00
2018-05-13T16:30:04.481Z,72.10
2018-05-13T16:32:32.579Z,71.80
2018-05-13T16:35:00.034Z,73.10
2018-05-13T16:37:27.486Z,73.10
2018-05-13T16:39:54.927Z,72.20
2018-05-13T16:42:22.388Z,73.10
2018-05-13T16:44:49.840Z,73.50
2018-05-13T16:47:17.301Z,72.40
2018-05-13T16:49:44.736Z,71.30
2018-05-13T16:52:12.191Z,70.60
2018-05-13T16:54:39.644Z,70.90
2018-05-13T16:57:07.820Z,71.80
2018-05-13T16:59:35.265Z,72.00
2018-05-13T17:02:05.556Z,70.80
2018-05-13T17:04:33.042Z,71.40
2018-05-13T17:07:01.254Z,69.70
2018-05-13T17:09:28.792Z,69.70
2018-05-13T17:11:56.162Z,69.10
2018-05-13T17:14:23.623Z,69.00
2018-05-13T17:16:51.114Z,69.80
2018-05-13T17:19:18.590Z,70.20
2018-05-13T17:21:47.470Z,71.20
2018-05-13T17:24:14.942Z,70.60
2018-05-13T17:26:43.189Z,71.60
2018-05-13T17:29:10.648Z,71.60
2018-05-13T17:31:38.100Z,72.20
2018-05-13T17:34:05.614Z,72.90
2018-05-13T17:36:33.840Z,75.90
2018-05-13T17:39:01.317Z,75.80
2018-05-13T17:41:28.782Z,76.40
2018-05-13T17:43:57.035Z,77.60
2018-05-13T17:46:25.491Z,77.60
2018-05-13T17:48:53.685Z,78.80
2018-05-13T17:51:21.138Z,79.90
2018-05-13T17:53:49.377Z,80.30
2018-05-13T17:56:16.833Z,80.30
2018-05-13T17:58:44.313Z,80.40
2018-05-13T18:01:11.762Z,81.40
2018-05-13T18:03:40.459Z,81.30
2018-05-13T18:06:08.473Z,81.50
2018-05-13T18:08:39.270Z,80.60
2018-05-13T18:11:06.704Z,81.30
2018-05-13T18:13:34.174Z,82.70
2018-05-13T18:16:01.626Z,84.70
2018-05-13T18:18:29.254Z,86.00
2018-05-13T18:20:57.632Z,87.50
2018-05-13T18:23:26.078Z,88.90
2018-05-13T18:25:53.531Z,90.10
2018-05-13T18:28:21.046Z,90.20
2018-05-13T18:30:48.503Z,90.60
2018-05-13T18:33:15.977Z,90.90
2018-05-13T18:35:43.451Z,91.50
2018-05-13T18:38:10.923Z,91.40
2018-05-13T18:40:38.500Z,91.80
2018-05-13T18:43:05.900Z,92.00
2018-05-13T18:45:33.351Z,92.00
2018-05-13T18:48:00.816Z,92.00
2018-05-13T18:50:29.032Z,91.80
2018-05-13T18:52:56.476Z,91.80
2018-05-13T18:55:23.924Z,92.10
2018-05-13T18:57:51.370Z,92.50
2018-05-13T19:00:18.839Z,92.70
2018-05-13T19:02:46.299Z,93.00
2018-05-13T19:05:13.759Z,92.70
2018-05-13T19:07:41.204Z,93.10
2018-05-13T19:10:08.671Z,93.40
2018-05-13T19:12:38.594Z,93.40
2018-05-13T19:15:06.084Z,93.80
2018-05-13T19:17:33.543Z,94.20
2018-05-13T19:20:00.996Z,94.20
2018-05-13T19:22:28.447Z,94.40
2018-05-13T19:24:56.688Z,94.50
2018-05-13T19:27:24.143Z,94.50
2018-05-13T19:29:51.608Z,94.60
2018-05-13T19:32:19.073Z,94.40
2018-05-13T19:34:46.541Z,94.40
2018-05-13T19:37:14.771Z,94.60
2018-05-13T19:39:42.248Z,94.60
2018-05-13T19:42:09.715Z,94.70
2018-05-13T19:44:37.178Z,94.60
2018-05-13T19:47:04.697Z,94.60
2018-05-13T19:49:32.152Z,94.60
2018-05-13T19:51:59.966Z,94.80
2018-05-13T19:54:28.222Z,94.70
2018-05-13T19:56:55.686Z,94.70
2018-05-13T19:59:23.151Z,94.70
2018-05-13T20:01:50.611Z,94.60
2018-05-13T20:04:18.094Z,95.00
2018-05-13T20:06:46.533Z,95.00
2018-05-13T20:09:14.013Z,94.80
2018-05-13T20:11:41.444Z,94.90
2018-05-13T20:14:08.907Z,95.00
2018-05-13T20:16:36.368Z,94.70
2018-05-13T20:19:03.818Z,94.80
2018-05-13T20:21:31.271Z,94.80
2018-05-13T20:23:58.726Z,94.60
2018-05-13T20:26:26.175Z,94.70
2018-05-13T20:28:53.640Z,94.80
2018-05-13T20:31:21.096Z,94.80
2018-05-13T20:33:48.562Z,94.80
2018-05-13T20:36:16.011Z,94.70
2018-05-13T20:38:43.471Z,94.60
2018-05-13T20:41:10.923Z,94.80
2018-05-13T20:43:38.396Z,94.80
2018-05-13T20:46:05.847Z,94.90
2018-05-13T20:48:33.296Z,94.90
2018-05-13T20:51:00.751Z,94.90
2018-05-13T20:53:28.199Z,94.90
2018-05-13T20:55:55.650Z,94.90
2018-05-13T20:58:23.109Z,94.90
2018-05-13T21:00:50.567Z,94.90
2018-05-13T21:03:18.023Z,95.00
2018-05-13T21:05:45.566Z,95.00
2018-05-13T21:08:13.016Z,95.00
2018-05-13T21:10:40.469Z,95.00
2018-05-13T21:13:07.920Z,95.00
2018-05-13T21:15:35.371Z,95.00
2018-05-13T21:18:02.814Z,95.00
2018-05-13T21:20:31.044Z,95.00
2018-05-13T21:22:58.488Z,95.00
2018-05-13T21:25:25.950Z,95.10
2018-05-13T21:27:53.393Z,95.00
2018-05-13T21:30:20.851Z,95.00
2018-05-13T21:32:49.067Z,95.00
2018-05-13T21:35:16.524Z,95.00
2018-05-13T21:37:43.977Z,94.90
2018-05-13T21:40:11.429Z,94.80
2018-05-13T21:42:38.891Z,94.80
2018-05-13T21:45:06.348Z,94.80
2018-05-13T21:47:33.795Z,94.80
2018-05-13T21:50:01.256Z,94.80
2018-05-13T21:52:28.698Z,94.60
2018-05-13T21:54:56.151Z,94.40
2018-05-13T21:57:23.600Z,94.40
2018-05-13T21:59:51.055Z,94.20
2018-05-13T22:02:18.507Z,94.30
2018-05-13T22:05:01.817Z,94.30
2018-05-13T22:07:29.273Z,94.50
2018-05-13T22:09:56.726Z,94.40
2018-05-13T22:12:24.180Z,94.30
2018-05-13T22:14:52.398Z,94.30
2018-05-13T22:17:19.848Z,94.30
2018-05-13T22:19:48.039Z,94.30
2018-05-13T22:22:15.490Z,94.30
2018-05-13T22:24:42.943Z,94.30
2018-05-13T22:27:10.412Z,94.40
2018-05-13T22:29:37.875Z,94.40
2018-05-13T22:32:07.103Z,94.40
2018-05-13T22:34:36.343Z,94.40
2018-05-13T22:37:03.787Z,94.30
2018-05-13T22:39:31.247Z,94.30
2018-05-13T22:41:59.338Z,94.20
2018-05-13T22:44:26.788Z,94.30
2018-05-13T22:46:54.264Z,94.40
2018-05-13T22:49:21.711Z,94.30
2018-05-13T22:51:49.167Z,94.30
2018-05-13T22:54:16.625Z,94.30
2018-05-13T22:56:44.083Z,94.40
2018-05-13T22:59:11.544Z,94.40
2018-05-13T23:01:39.004Z,94.40
2018-05-13T23:04:06.452Z,94.50
2018-05-13T23:06:33.911Z,94.60
2018-05-13T23:09:01.363Z,94.60
2018-05-13T23:11:28.824Z,94.50
2018-05-13T23:13:56.268Z,94.40
2018-05-13T23:16:23.722Z,94.40
2018-05-13T23:18:51.179Z,94.40
2018-05-13T23:21:18.637Z,94.40
2018-05-13T23:23:46.093Z,94.40
2018-05-13T23:26:13.545Z,94.50
2018-05-13T23:28:40.988Z,94.60
2018-05-13T23:31:08.448Z,94.70
2018-05-13T23:33:35.891Z,94.80
2018-05-13T23:36:04.115Z,94.90
2018-05-13T23:38:31.559Z,94.80
2018-05-13T23:40:59.027Z,94.80
2018-05-13T23:43:26.535Z,94.70
2018-05-13T23:45:53.945Z,94.50
2018-05-13T23:48:21.398Z,94.40
2018-05-13T23:50:48.855Z,94.50
2018-05-13T23:53:16.306Z,94.50
2018-05-13T23:55:43.766Z,94.60
2018-05-13T23:58:11.210Z,94.50
